Terminal Aerodrome Forecast
Issued by NWS Wakefield, VA

Home | Current Version | Previous Version | Text Only | Print | Product List | Glossary On
Versions: 1 2 3 4 5 6 7 8 9 10 11 12 13 14 15 16 17 18
000
FTUS41 KAKQ 232325
TAFSBY
TAF
KSBY 232325Z 2400/2424 22012G18KT P6SM SCT150
     FM240500 21012KT P6SM SCT120 WS020/22040KT
     FM241000 22012KT P6SM VCSH BKN100
     FM241200 23014G21KT P6SM SHRA BKN045
     FM241500 26012KT P6SM BKN100
     FM241800 27008KT P6SM SCT050=

USA.gov is the U.S. government's official web portal to all federal, state and local government web resources and services.